Time;durP1;ratioP1;P1;durP2;ratioP2;P2;SDS_P1;SDS_P2;PMS_P1;PMS_P2;Temp;Humidity;BMP_temperature;BMP_pressure;BME280_temperature;BME280_humidity;BME280_pressure;Samples;Min_cycle;Max_cycle;Signal;HPM_P1;HPM_P2
2022/12/19 00:02:25;;;;;;;27.33;10.43;;;;;;;-2.81;75.63;102848.61;123366;1099;104457;-77
2022/12/19 00:04:56;;;;;;;29.83;10.43;;;;;;;-2.81;75.33;102858.89;123265;1099;104282;-76
2022/12/19 00:07:27;;;;;;;27.53;10.53;;;;;;;-2.79;75.35;102857.46;123361;1099;104274;-76
2022/12/19 00:09:58;;;;;;;27.40;10.90;;;;;;;-2.79;76.38;102857.46;123447;1099;104424;-76
2022/12/19 00:12:29;;;;;;;28.33;9.97;;;;;;;-2.79;76.26;102869.36;123300;1099;104351;-76
2022/12/19 00:15:00;;;;;;;27.45;9.95;;;;;;;-2.85;75.75;102890.09;123324;1099;104357;-75
2022/12/19 00:17:32;;;;;;;25.77;10.17;;;;;;;-2.89;75.88;102874.99;123333;1099;104278;-75
2022/12/19 00:20:03;;;;;;;27.70;10.37;;;;;;;-2.93;75.02;102878.83;123367;1099;104270;-75
2022/12/19 00:22:34;;;;;;;29.77;10.97;;;;;;;-2.95;74.97;102869.98;123341;1099;104422;-76
2022/12/19 00:25:06;;;;;;;29.37;11.37;;;;;;;-2.97;75.44;102865.40;123359;1098;104351;-76
2022/12/19 00:27:38;;;;;;;27.00;10.63;;;;;;;-2.99;76.26;102866.83;123431;1098;104265;-76
2022/12/19 00:30:11;;;;;;;28.20;10.60;;;;;;;-3.01;75.72;102870.86;123099;1099;104351;-75
2022/12/19 00:32:42;;;;;;;25.52;10.15;;;;;;;-3.02;75.25;102876.70;123397;1099;104287;-76
2022/12/19 00:35:13;;;;;;;28.90;10.70;;;;;;;-3.03;76.20;102877.45;123408;1099;104654;-76
2022/12/19 00:37:46;;;;;;;27.43;9.90;;;;;;;-3.04;75.77;102883.30;123317;1098;104252;-77
2022/12/19 00:40:17;;;;;;;27.63;9.77;;;;;;;-3.04;75.72;102889.36;123361;1099;104255;-77
2022/12/19 00:42:48;;;;;;;29.37;10.00;;;;;;;-3.07;75.68;102884.77;123173;1099;104684;-76
2022/12/19 00:45:19;;;;;;;27.43;11.30;;;;;;;-3.10;76.41;102893.70;123350;1099;104328;-77
2022/12/19 00:47:50;;;;;;;29.43;11.43;;;;;;;-3.13;76.30;102883.98;123410;1099;104412;-77
2022/12/19 00:50:22;;;;;;;31.80;11.27;;;;;;;-3.18;75.19;102881.53;123381;1099;104265;-77
2022/12/19 00:52:53;;;;;;;28.70;11.20;;;;;;;-3.20;75.89;102882.99;123383;1099;104290;-77
2022/12/19 00:55:24;;;;;;;32.40;11.83;;;;;;;-3.26;75.71;102875.41;123379;1099;104338;-77
2022/12/19 00:57:55;;;;;;;31.33;11.67;;;;;;;-3.33;76.18;102886.55;123106;1099;104354;-76
2022/12/19 01:00:26;;;;;;;29.63;10.67;;;;;;;-3.35;76.00;102894.76;123369;1099;104399;-76
2022/12/19 01:03:00;;;;;;;26.90;10.00;;;;;;;-3.40;75.85;102891.59;123318;1099;104254;-76
2022/12/19 01:05:32;;;;;;;32.97;11.57;;;;;;;-3.44;76.33;102897.98;123362;1099;104687;-76
2022/12/19 01:08:04;;;;;;;30.47;11.33;;;;;;;-3.48;76.45;102893.16;123342;1099;104294;-77
2022/12/19 01:10:35;;;;;;;28.87;9.47;;;;;;;-3.51;76.20;102894.42;123398;1099;104235;-77
2022/12/19 01:13:06;;;;;;;29.30;10.97;;;;;;;-3.56;76.24;102883.55;123133;1099;104281;-75
2022/12/19 01:15:40;;;;;;;28.77;10.30;;;;;;;-3.59;76.42;102882.25;123329;1099;104765;-76
2022/12/19 01:18:12;;;;;;;25.10;9.47;;;;;;;-3.65;76.09;102890.97;123246;1099;104402;-76
2022/12/19 01:20:46;;;;;;;24.27;9.47;;;;;;;-3.67;76.36;102900.12;123365;1098;104287;-77
2022/12/19 01:23:17;;;;;;;27.67;11.27;;;;;;;-3.70;77.06;102884.32;123111;1099;104251;-77
2022/12/19 01:25:54;;;;;;;30.00;11.57;;;;;;;-3.72;76.91;102885.77;123345;1099;104354;-76
2022/12/19 01:28:27;;;;;;;25.97;9.20;;;;;;;-3.75;76.49;102890.50;123113;1099;104376;-75
2022/12/19 01:30:58;;;;;;;29.30;9.07;;;;;;;-3.78;76.55;102887.53;123364;1098;104242;-76
2022/12/19 01:33:29;;;;;;;22.73;7.93;;;;;;;-3.81;76.60;102890.61;123296;1099;104281;-76
2022/12/19 01:36:06;;;;;;;21.10;7.80;;;;;;;-3.85;76.62;102902.83;123348;1099;104251;-77
2022/12/19 01:38:38;;;;;;;28.67;10.50;;;;;;;-3.84;75.86;102899.55;123169;1099;104409;-76
2022/12/19 01:41:10;;;;;;;29.57;10.23;;;;;;;-3.84;76.07;102917.52;123366;1099;104309;-76
2022/12/19 01:46:45;;;;;;;21.10;6.70;;;;;;;-3.84;75.95;102912.38;123224;1102;104328;-76
2022/12/19 01:49:21;;;;;;;21.03;7.80;;;;;;;-3.84;76.36;102885.08;122664;1102;104348;-74
2022/12/19 01:51:56;;;;;;;20.77;7.40;;;;;;;-3.85;76.15;102879.74;123014;1102;104290;-76
2022/12/19 01:54:35;;;;;;;28.77;9.63;;;;;;;-3.87;75.53;102878.63;123105;1102;104351;-77
2022/12/19 01:57:13;;;;;;;28.05;9.85;;;;;;;-3.85;75.49;102885.82;123014;1102;104408;-76
2022/12/19 01:59:50;;;;;;;21.33;6.93;;;;;;;-3.87;75.56;102905.20;122787;1102;104398;-77
2022/12/19 02:02:25;;;;;;;17.97;6.33;;;;;;;-3.86;75.49;102903.58;122693;1102;104267;-76
2022/12/19 02:04:56;;;;;;;28.25;9.50;;;;;;;-3.87;75.43;102888.89;122728;1102;104290;-75
2022/12/19 02:07:28;;;;;;;20.00;6.40;;;;;;;-3.90;74.70;102884.27;122687;1102;104366;-76
2022/12/19 02:10:00;;;;;;;25.60;8.93;;;;;;;-3.91;74.30;102902.02;122631;1102;104651;-76
2022/12/19 02:12:41;;;;;;;23.63;8.83;;;;;;;-3.89;74.81;102882.65;122834;1102;104265;-76
2022/12/19 02:15:15;;;;;;;16.80;5.63;;;;;;;-3.93;73.83;102913.73;122712;1102;104344;-75
2022/12/19 02:18:02;;;;;;;27.17;9.15;;;;;;;-3.91;74.81;102908.09;122695;1102;104319;-76
2022/12/19 02:21:14;;;;;;;29.20;11.00;;;;;;;-3.89;74.69;102904.08;122713;1102;104336;-75
2022/12/19 02:24:26;;;;;;;28.60;10.50;;;;;;;-3.87;74.77;102906.84;122637;1102;104271;-75
2022/12/19 02:27:18;;;;;;;27.17;10.27;;;;;;;-3.87;75.06;102914.55;122645;1105;104754;-75
2022/12/19 02:30:07;;;;;;;28.10;10.53;;;;;;;-3.91;74.25;102920.92;122601;1103;104396;-76
2022/12/19 02:32:55;;;;;;;27.30;10.00;;;;;;;-3.94;73.48;102919.57;122626;1102;104265;-76
2022/12/19 02:35:37;;;;;;;29.77;10.60;;;;;;;-3.94;74.02;102922.14;122690;1104;104242;-76
2022/12/19 02:38:17;;;;;;;21.23;8.13;;;;;;;-3.95;74.56;102922.88;122587;1102;104265;-76
2022/12/19 02:40:56;;;;;;;29.20;10.27;;;;;;;-3.95;74.31;102925.45;122592;1101;104300;-76
2022/12/19 02:43:32;;;;;;;29.50;11.27;;;;;;;-3.95;74.37;102921.23;122669;1102;104383;-76
2022/12/19 02:46:06;;;;;;;28.27;11.23;;;;;;;-3.95;74.64;102910.97;122683;1102;104258;-77
2022/12/19 02:48:39;;;;;;;31.43;11.10;;;;;;;-3.92;74.56;102936.11;122683;1102;104440;-76
2022/12/19 02:51:11;;;;;;;29.53;11.23;;;;;;;-3.93;74.59;102944.52;122698;1102;104287;-76
2022/12/19 02:53:43;;;;;;;29.37;11.23;;;;;;;-3.94;74.17;102945.22;122781;1102;104287;-77
2022/12/19 02:56:40;;;;;;;29.00;7.73;;;;;;;-4.03;72.37;102948.42;122651;1102;104299;-77
2022/12/19 02:59:27;;;;;;;27.90;10.17;;;;;;;-4.08;73.20;102948.52;122628;1103;104347;-76
2022/12/19 03:02:05;;;;;;;31.43;12.57;;;;;;;-4.14;73.47;102938.39;122677;1104;104549;-77
2022/12/19 03:04:46;;;;;;;31.65;10.55;;;;;;;-4.21;73.17;102943.41;122964;1105;104247;-75
2022/12/19 03:07:26;;;;;;;34.97;13.13;;;;;;;-4.23;73.57;102950.89;122884;1102;104222;-76
2022/12/19 03:10:09;;;;;;;31.00;12.00;;;;;;;-4.26;73.59;102950.48;122748;1103;104309;-76
2022/12/19 03:12:45;;;;;;;35.37;12.80;;;;;;;-4.28;74.05;102939.11;122734;1102;104300;-76
2022/12/19 03:15:17;;;;;;;34.57;13.07;;;;;;;-4.32;73.80;102933.36;122628;1102;104354;-76
2022/12/19 03:17:49;;;;;;;35.05;14.30;;;;;;;-4.35;73.96;102931.30;122623;1105;104329;-76
2022/12/19 03:20:28;;;;;;;36.63;13.83;;;;;;;-4.38;74.36;102962.59;122650;1102;104348;-76
2022/12/19 03:22:59;;;;;;;33.77;14.33;;;;;;;-4.38;74.18;102956.52;122677;1102;104268;-76
2022/12/19 03:25:32;;;;;;;36.17;13.90;;;;;;;-4.40;74.32;102956.31;122692;1102;104392;-76
2022/12/19 03:28:06;;;;;;;35.53;13.47;;;;;;;-4.40;74.05;102942.58;122741;1105;104498;-76
2022/12/19 03:30:39;;;;;;;34.77;12.50;;;;;;;-4.43;74.15;102945.64;122606;1102;104287;-75
2022/12/19 03:33:13;;;;;;;27.33;10.80;;;;;;;-4.43;74.40;102952.42;122688;1102;104341;-75
2022/12/19 03:35:46;;;;;;;41.10;14.93;;;;;;;-4.44;74.58;102958.25;122685;1102;104381;-76
2022/12/19 03:38:20;;;;;;;39.10;14.13;;;;;;;-4.42;74.33;102962.88;122686;1102;104191;-76
2022/12/19 03:40:52;;;;;;;37.57;14.13;;;;;;;-4.41;74.60;102961.23;122587;1102;104705;-75
2022/12/19 03:43:26;;;;;;;41.23;13.53;;;;;;;-4.41;74.47;102963.80;122610;1102;104313;-76
2022/12/19 03:46:02;;;;;;;36.87;14.53;;;;;;;-4.40;74.64;102957.97;122613;1102;104345;-75
2022/12/19 03:48:38;;;;;;;40.87;14.47;;;;;;;-4.41;74.10;102974.99;122740;1102;104318;-76
2022/12/19 03:51:17;;;;;;;39.87;13.47;;;;;;;-4.39;75.00;102980.33;123034;1102;104252;-76
2022/12/19 03:53:56;;;;;;;39.03;14.13;;;;;;;-4.41;74.29;102985.25;123128;1102;104261;-76
2022/12/19 03:56:37;;;;;;;33.37;12.47;;;;;;;-4.46;74.65;102998.14;122755;1102;104322;-76
2022/12/19 03:59:11;;;;;;;35.60;13.67;;;;;;;-4.49;74.48;102992.60;122750;1102;104469;-76
2022/12/19 04:01:44;;;;;;;43.40;14.15;;;;;;;-4.49;74.92;102990.04;122671;1102;104326;-76
2022/12/19 04:04:15;;;;;;;54.10;15.40;;;;;;;-4.52;74.40;102994.05;122713;1101;104198;-75
2022/12/19 04:06:48;;;;;;;59.43;18.07;;;;;;;-4.52;74.78;102995.66;122689;1102;104408;-76
2022/12/19 04:09:22;;;;;;;40.20;14.90;;;;;;;-4.52;74.58;102985.41;122792;1102;105668;-76
2022/12/19 04:11:59;;;;;;;40.10;16.37;;;;;;;-4.54;74.95;102994.54;122723;1102;104389;-77
2022/12/19 04:14:33;;;;;;;42.30;15.73;;;;;;;-4.54;75.07;103012.48;123003;1102;104272;-76
2022/12/19 04:17:13;;;;;;;45.17;17.53;;;;;;;-4.54;74.93;103015.04;123007;1101;104344;-76
2022/12/19 04:19:49;;;;;;;39.47;16.33;;;;;;;-4.52;75.12;103018.73;122809;1102;104405;-76
2022/12/19 04:22:25;;;;;;;38.13;13.63;;;;;;;-4.53;75.20;103024.59;122672;1102;104389;-76
2022/12/19 04:24:59;;;;;;;36.40;13.20;;;;;;;-4.54;75.17;103020.16;122691;1102;104345;-76
2022/12/19 04:27:35;;;;;;;30.63;11.13;;;;;;;-4.56;75.75;103029.30;122717;1102;104277;-76
2022/12/19 04:30:09;;;;;;;37.20;13.33;;;;;;;-4.59;75.51;103005.81;122684;1102;104272;-75
2022/12/19 04:32:46;;;;;;;44.13;16.90;;;;;;;-4.58;75.78;103016.27;122838;1102;104361;-76
2022/12/19 04:35:18;;;;;;;27.80;9.13;;;;;;;-4.61;76.00;103033.79;123123;1102;104217;-75
2022/12/19 04:37:49;;;;;;;28.45;9.95;;;;;;;-4.66;76.17;103028.73;122819;1102;104268;-76
2022/12/19 04:40:20;;;;;;;45.60;16.43;;;;;;;-4.70;76.47;103028.31;122634;1102;104175;-76
2022/12/19 04:42:51;;;;;;;31.33;10.87;;;;;;;-4.72;76.46;103027.20;122751;1102;104268;-76
2022/12/19 04:45:23;;;;;;;38.63;15.00;;;;;;;-4.71;76.01;103036.70;122700;1102;104731;-76
2022/12/19 04:47:54;;;;;;;40.00;15.10;;;;;;;-4.68;76.80;103032.73;122774;1105;104312;-76
2022/12/19 04:50:25;;;;;;;36.07;13.00;;;;;;;-4.68;76.62;103038.78;122651;1102;104312;-76
2022/12/19 04:52:58;;;;;;;39.17;12.77;;;;;;;-4.68;76.25;103038.78;122692;1102;104268;-75
2022/12/19 04:55:30;;;;;;;39.10;14.43;;;;;;;-4.67;76.20;103047.37;122763;1102;104302;-76
2022/12/19 04:58:01;;;;;;;36.13;13.10;;;;;;;-4.66;76.34;103045.02;122724;1102;104374;-76
2022/12/19 05:00:32;;;;;;;37.93;14.73;;;;;;;-4.64;76.75;103053.87;122724;1102;104363;-76
2022/12/19 05:03:03;;;;;;;41.90;15.93;;;;;;;-4.63;76.38;103050.57;122700;1102;104370;-75
2022/12/19 05:05:34;;;;;;;42.90;15.80;;;;;;;-4.59;76.09;103060.54;122661;1102;104326;-75
2022/12/19 05:08:06;;;;;;;38.47;14.83;;;;;;;-4.60;76.66;103058.67;122933;1104;104421;-75
2022/12/19 05:10:37;;;;;;;39.27;14.93;;;;;;;-4.59;76.76;103057.98;122827;1102;105634;-76
2022/12/19 05:13:09;;;;;;;37.40;13.97;;;;;;;-4.59;76.92;103057.06;122795;1102;104414;-76
2022/12/19 05:15:40;;;;;;;36.93;14.03;;;;;;;-4.56;76.25;103058.39;122862;1102;104222;-76
2022/12/19 05:18:11;;;;;;;41.70;14.63;;;;;;;-4.53;76.87;103055.34;122924;1102;104360;-75
2022/12/19 05:20:42;;;;;;;36.20;14.27;;;;;;;-4.49;76.40;103055.02;122832;1102;104396;-76
2022/12/19 05:23:13;;;;;;;37.80;13.63;;;;;;;-4.46;76.85;103054.53;122799;1102;104702;-75
2022/12/19 05:25:44;;;;;;;42.83;15.87;;;;;;;-4.46;76.30;103060.56;122853;1102;104297;-76
2022/12/19 05:28:16;;;;;;;34.23;12.93;;;;;;;-4.41;76.54;103061.20;122948;1102;104264;-76
2022/12/19 05:30:48;;;;;;;39.87;15.03;;;;;;;-4.38;76.63;103062.56;123502;1102;104802;-76
2022/12/19 05:33:19;;;;;;;37.70;13.33;;;;;;;-4.36;76.31;103078.16;122981;1101;104248;-75
2022/12/19 05:35:50;;;;;;;40.20;13.97;;;;;;;-4.37;76.27;103066.04;123033;1102;104344;-77
2022/12/19 05:38:21;;;;;;;38.07;13.70;;;;;;;-4.39;76.68;103078.64;122934;1102;104862;-76
2022/12/19 05:40:52;;;;;;;39.50;14.27;;;;;;;-4.37;76.58;103083.98;123637;1102;104329;-76
2022/12/19 05:43:24;;;;;;;40.33;14.73;;;;;;;-4.36;76.87;103083.28;122902;1102;104273;-76
2022/12/19 05:45:56;;;;;;;38.50;14.33;;;;;;;-4.36;76.75;103091.88;123309;1102;104351;-75
2022/12/19 05:48:27;;;;;;;41.73;15.23;;;;;;;-4.33;76.76;103083.70;123592;1102;104277;-75
2022/12/19 05:50:58;;;;;;;39.90;14.73;;;;;;;-4.31;76.69;103094.16;123079;1102;104267;-75
2022/12/19 05:53:30;;;;;;;43.45;16.35;;;;;;;-4.26;76.66;103091.48;123559;1102;104271;-75
2022/12/19 05:56:09;;;;;;;44.77;16.53;;;;;;;-4.20;76.49;103096.54;123479;1102;104623;-75
2022/12/19 05:58:41;;;;;;;42.20;15.10;;;;;;;-4.26;76.71;103085.45;123603;1102;104217;-76
2022/12/19 06:01:16;;;;;;;38.50;14.70;;;;;;;-4.16;76.75;103111.61;123366;1102;104393;-76
2022/12/19 06:03:47;;;;;;;37.57;13.37;;;;;;;-4.15;77.06;103105.77;123501;1102;104325;-76
2022/12/19 06:06:21;;;;;;;44.63;16.43;;;;;;;-4.15;76.63;103113.47;124252;1102;104203;-75
2022/12/19 06:08:56;;;;;;;40.23;15.47;;;;;;;-4.17;76.80;103110.69;123207;1102;104243;-75
2022/12/19 06:11:27;;;;;;;39.80;14.53;;;;;;;-4.13;76.89;103109.45;123347;1102;104200;-77
2022/12/19 06:13:58;;;;;;;43.30;16.45;;;;;;;-4.10;76.59;103112.44;123379;1102;104178;-76
2022/12/19 06:16:29;;;;;;;44.43;16.00;;;;;;;-4.06;76.59;103117.28;123625;1102;104237;-76
2022/12/19 06:19:01;;;;;;;43.40;15.97;;;;;;;-4.06;76.62;103124.98;123685;1102;104191;-77
2022/12/19 06:21:35;;;;;;;44.87;16.27;;;;;;;-4.04;76.25;103125.19;123406;1102;104289;-75
2022/12/19 06:24:05;;;;;;;;;;;;;;;-3.97;77.00;103128.80;123949;1102;104271;-76
2022/12/19 06:26:41;;;;;;;42.07;14.60;;;;;;;-3.95;76.42;103129.00;123653;1102;103080;-78
2022/12/19 06:29:12;;;;;;;48.97;17.90;;;;;;;-3.95;76.67;103135.78;123829;1102;104226;-75
2022/12/19 06:31:44;;;;;;;43.73;15.53;;;;;;;-3.89;76.99;103137.53;124102;1102;104290;-78
2022/12/19 06:34:15;;;;;;;43.37;16.10;;;;;;;-3.84;76.33;103138.16;124178;1102;104207;-76
2022/12/19 06:36:46;;;;;;;41.63;15.37;;;;;;;-3.85;76.23;103139.81;124354;1102;104174;-77
2022/12/19 06:39:17;;;;;;;43.70;17.10;;;;;;;-3.84;76.38;103144.20;124215;1105;102799;-78
2022/12/19 06:44:45;;;;;;;42.73;15.33;;;;;;;-3.81;75.76;103162.58;124011;1105;104312;-77
2022/12/19 06:47:18;;;;;;;35.43;11.60;;;;;;;-3.80;75.70;103176.36;123971;1102;104300;-77
2022/12/19 06:49:49;;;;;;;38.20;14.23;;;;;;;-3.82;75.40;103159.80;124059;1103;104261;-77
2022/12/19 06:52:22;;;;;;;39.60;14.47;;;;;;;-3.82;75.60;103164.94;124414;1102;103890;-77
2022/12/19 06:54:55;;;;;;;40.67;15.50;;;;;;;-3.76;76.10;103163.20;124207;1102;104191;-78
2022/12/19 06:57:26;;;;;;;45.87;15.73;;;;;;;-3.70;75.88;103174.30;124185;1102;102438;-79
2022/12/19 06:59:59;;;;;;;44.20;14.85;;;;;;;-3.73;75.42;103176.45;124345;1102;104351;-77
2022/12/19 07:02:42;;;;;;;;;;;;;;;;;;;;;
2022/12/19 07:05:22;;;;;;;39.53;14.53;;;;;;;-3.77;75.54;103181.91;124199;1102;104223;-76
2022/12/19 07:07:58;;;;;;;37.77;13.43;;;;;;;-3.70;75.59;103189.70;124313;1106;104169;-77
2022/12/19 07:10:30;;;;;;;49.53;16.87;;;;;;;-3.68;75.67;103200.17;124111;1102;104161;-76
2022/12/19 07:13:01;;;;;;;44.23;16.40;;;;;;;-3.68;75.42;103192.47;124205;1102;104261;-76
2022/12/19 07:15:35;;;;;;;43.10;16.90;;;;;;;-3.64;75.37;103198.23;124325;1102;104185;-76
2022/12/19 07:18:09;;;;;;;40.87;14.77;;;;;;;-3.61;75.18;103192.59;124262;1102;104223;-78
2022/12/19 07:20:42;;;;;;;42.13;13.23;;;;;;;-3.59;75.23;103203.07;124442;1102;103141;-78
2022/12/19 07:23:22;;;;;;;38.33;15.70;;;;;;;-3.59;75.51;103205.64;124412;1102;104255;-77
2022/12/19 07:25:55;;;;;;;37.33;13.50;;;;;;;-3.60;74.76;103202.13;124567;1105;102268;-78
2022/12/19 07:28:27;;;;;;;44.60;14.93;;;;;;;-3.57;75.41;103209.33;124404;1106;102799;-78
2022/12/19 07:30:58;;;;;;;41.00;16.80;;;;;;;-3.55;75.12;103202.75;124085;1102;104326;-78
2022/12/19 07:33:29;;;;;;;39.27;15.07;;;;;;;-3.49;75.18;103203.58;124052;1102;104252;-78
2022/12/19 07:36:02;;;;;;;39.30;13.77;;;;;;;-3.44;74.45;103210.28;124233;1102;101960;-78
2022/12/19 07:38:37;;;;;;;34.57;14.23;;;;;;;-3.38;74.60;103211.11;124183;1102;104169;-79
2022/12/19 07:41:09;;;;;;;45.80;15.10;;;;;;;-3.33;74.25;103211.73;124461;1102;101903;-78
2022/12/19 07:43:41;;;;;;;38.50;13.95;;;;;;;-3.29;74.18;103209.78;124355;1102;104332;-78
2022/12/19 07:46:12;;;;;;;37.75;15.20;;;;;;;-3.29;73.67;103213.97;124234;1102;104245;-77
2022/12/19 07:48:49;;;;;;;37.35;13.60;;;;;;;-3.30;73.71;103215.63;124306;1102;102511;-78
2022/12/19 07:51:20;;;;;;;40.90;14.60;;;;;;;-3.31;74.02;103223.13;124266;1102;104216;-78
2022/12/19 07:53:52;;;;;;;37.77;13.33;;;;;;;-3.26;74.07;103225.61;124201;1102;103099;-76
2022/12/19 07:56:23;;;;;;;37.93;14.90;;;;;;;-3.22;75.05;103220.88;124170;1103;103855;-77
2022/12/19 07:58:56;;;;;;;37.37;14.93;;;;;;;-3.20;74.19;103219.43;124606;1102;104172;-78
2022/12/19 08:01:28;;;;;;;34.47;12.97;;;;;;;-3.15;73.67;103220.97;124350;1102;104242;-77
2022/12/19 08:04:00;;;;;;;35.83;13.20;;;;;;;-3.16;73.57;103230.33;123775;1105;102925;-77
2022/12/19 08:06:31;;;;;;;39.27;14.67;;;;;;;-3.18;73.74;103224.06;124229;1102;102098;-77
2022/12/19 08:09:04;;;;;;;39.53;15.33;;;;;;;-3.13;74.81;103233.30;124142;1102;104160;-77
2022/12/19 08:11:36;;;;;;;37.10;14.83;;;;;;;-3.13;74.35;103230.73;124071;1106;104291;-77
2022/12/19 08:14:07;;;;;;;38.70;15.53;;;;;;;-3.09;73.26;103232.06;124395;1102;102983;-76
2022/12/19 08:16:41;;;;;;;39.50;15.00;;;;;;;-3.08;74.01;103231.35;124197;1102;104222;-76
2022/12/19 08:19:12;;;;;;;33.13;11.50;;;;;;;-3.15;72.28;103241.52;124086;1102;104168;-77
2022/12/19 08:21:44;;;;;;;37.77;13.97;;;;;;;-3.15;73.00;103231.23;124105;1105;104152;-77
2022/12/19 08:24:18;;;;;;;36.43;13.03;;;;;;;-3.14;72.70;103227.96;124247;1105;102849;-77
2022/12/19 08:26:55;;;;;;;35.77;14.63;;;;;;;-3.00;73.22;103225.59;124388;1102;104245;-77
2022/12/19 08:29:26;;;;;;;35.83;13.57;;;;;;;-2.85;73.25;103221.58;125971;1101;103029;-77
2022/12/19 08:31:58;;;;;;;38.87;14.63;;;;;;;-2.81;73.72;103216.11;124537;1102;104166;-77
2022/12/19 08:34:30;;;;;;;39.27;14.53;;;;;;;-2.80;73.04;103210.25;124272;1102;104242;-76
2022/12/19 08:37:02;;;;;;;36.60;14.70;;;;;;;-2.77;74.25;103214.89;124353;1102;102432;-76
2022/12/19 08:39:33;;;;;;;37.40;14.27;;;;;;;-2.61;73.97;103216.17;124140;1102;104272;-76
2022/12/19 08:42:15;;;;;;;43.23;17.70;;;;;;;-2.51;73.19;103210.59;124410;1102;104275;-77
2022/12/19 08:44:54;;;;;;;44.00;16.90;;;;;;;-2.41;72.54;103218.80;124428;1102;103407;-76
2022/12/19 08:47:34;;;;;;;40.70;16.60;;;;;;;-2.34;73.28;103215.38;124535;1102;102875;-75
2022/12/19 08:50:07;;;;;;;39.90;15.57;;;;;;;-2.19;73.16;103216.46;124226;1102;104226;-78
2022/12/19 08:52:39;;;;;;;40.92;13.60;;;;;;;-2.25;70.89;103215.66;124517;1100;103186;-78
2022/12/19 08:55:12;;;;;;;36.47;14.43;;;;;;;-2.28;72.63;103216.17;124460;1102;104168;-77
2022/12/19 08:57:52;;;;;;;33.50;12.77;;;;;;;-2.31;72.15;103204.57;124166;1102;102145;-77
2022/12/19 09:00:27;;;;;;;35.20;12.60;;;;;;;-2.35;71.89;103209.31;124630;1102;103582;-75
2022/12/19 09:02:59;;;;;;;31.17;11.23;;;;;;;-2.29;71.95;103210.83;124638;1102;103019;-77
2022/12/19 09:05:31;;;;;;;36.67;14.77;;;;;;;-2.32;72.61;103211.38;124195;1103;103296;-76
2022/12/19 09:08:05;;;;;;;33.93;13.47;;;;;;;-2.26;72.97;103207.03;124151;1102;104180;-76
2022/12/19 09:10:41;;;;;;;36.57;13.90;;;;;;;-2.12;72.81;103203.69;125024;1099;102529;-75
2022/12/19 09:13:13;;;;;;;33.77;13.50;;;;;;;-2.11;71.91;103213.23;125219;1099;104166;-75
2022/12/19 09:15:45;;;;;;;34.20;13.37;;;;;;;-2.15;71.67;103208.43;125069;1099;102250;-76
2022/12/19 09:18:16;;;;;;;35.17;13.10;;;;;;;-2.23;70.63;103204.86;124958;1099;103433;-75
2022/12/19 09:20:48;;;;;;;32.20;13.10;;;;;;;-2.30;72.12;103202.20;124912;1098;104325;-75
2022/12/19 09:23:22;;;;;;;36.63;15.55;;;;;;;-2.23;71.65;103203.91;125175;1099;102138;-76
2022/12/19 09:25:56;;;;;;;37.38;13.83;;;;;;;-2.15;70.79;103212.63;125048;1099;103172;-76
2022/12/19 09:28:29;;;;;;;30.13;12.00;;;;;;;-2.11;71.17;103210.66;125128;1099;102646;-77
2022/12/19 09:31:05;;;;;;;36.87;13.37;;;;;;;-2.08;70.90;103202.42;124680;1099;104348;-77
2022/12/19 09:33:39;;;;;;;35.03;13.10;;;;;;;-2.11;71.88;103195.22;124655;1099;104301;-78
2022/12/19 09:36:21;;;;;;;37.83;14.57;;;;;;;-2.02;71.52;103198.07;124615;1099;104169;-77
2022/12/19 09:39:00;;;;;;;33.77;11.90;;;;;;;-2.04;71.07;103197.88;126521;1099;103900;-78
2022/12/19 09:42:02;;;;;;;33.03;12.53;;;;;;;-2.10;72.04;103198.70;126764;1097;102592;-77
2022/12/19 09:45:14;;;;;;;;;;;;;;;;;;;;;
2022/12/19 09:48:41;;;;;;;37.30;13.87;;;;;;;-2.04;69.68;103202.07;126386;1099;110404;-77
2022/12/19 10:01:59;;;;;;;34.23;11.87;;;;;;;-1.91;70.62;103173.72;124214;1102;102892;-79
2022/12/19 10:04:36;;;;;;;33.27;12.73;;;;;;;-1.83;71.57;103165.32;124186;1105;104170;-75
2022/12/19 10:07:10;;;;;;;32.43;12.33;;;;;;;-1.79;69.87;103169.20;124420;1105;102896;-76
2022/12/19 10:09:41;;;;;;;;;;;;;;;-1.75;70.71;103179.17;124319;1103;102295;-75
2022/12/19 10:12:28;;;;;;;33.95;12.60;;;;;;;-1.67;70.29;103166.56;124348;1104;103578;-75
2022/12/19 10:15:10;;;;;;;34.38;12.78;;;;;;;-1.68;70.44;103174.09;107111;1105;10001839;-74
2022/12/19 10:18:05;;;;;;;28.67;10.27;;;;;;;-1.70;68.98;103176.47;124331;1105;103150;-76
2022/12/19 10:20:43;;;;;;;32.70;12.23;;;;;;;-1.68;71.00;103167.28;124256;1105;104171;-75
2022/12/19 10:23:38;;;;;;;33.73;12.43;;;;;;;-1.68;71.05;103176.67;124381;1105;102805;-76
2022/12/19 10:26:20;;;;;;;34.70;12.87;;;;;;;-1.66;70.64;103157.18;124462;1105;102283;-75
2022/12/19 10:29:23;;;;;;;35.10;11.50;;;;;;;-1.68;70.56;103159.55;124594;1105;102756;-76
2022/12/19 10:32:08;;;;;;;34.37;12.90;;;;;;;-1.64;70.56;103146.36;125596;1103;102642;-75
2022/12/19 10:34:54;;;;;;;30.77;11.40;;;;;;;-1.58;70.06;103142.70;125501;1105;102880;-77
2022/12/19 10:37:46;;;;;;;32.27;12.33;;;;;;;-1.54;69.94;103143.28;125708;1105;102543;-77
2022/12/19 10:40:30;;;;;;;30.27;11.40;;;;;;;-1.58;71.34;103138.47;125899;1103;101830;-75
2022/12/19 10:43:16;;;;;;;33.20;13.30;;;;;;;-1.54;72.11;103143.28;125598;1105;118190;-76
2022/12/19 10:45:54;;;;;;;33.17;12.83;;;;;;;-1.46;71.71;103142.59;125651;1105;102508;-77
2022/12/19 10:48:26;;;;;;;32.03;11.83;;;;;;;-1.48;70.58;103141.48;125650;1102;103150;-77
2022/12/19 10:50:57;;;;;;;31.37;12.10;;;;;;;-1.53;70.55;103139.05;125786;1102;102019;-76
2022/12/19 10:53:30;;;;;;;32.17;12.57;;;;;;;-1.54;71.30;103139.77;125586;1102;101812;-78
2022/12/19 10:56:11;;;;;;;33.27;13.73;;;;;;;-1.50;71.04;103142.92;125635;1101;102811;-76
2022/12/19 10:58:45;;;;;;;34.53;13.57;;;;;;;-1.49;71.29;103124.17;125632;1102;102439;-76
2022/12/19 11:01:23;;;;;;;31.35;12.00;;;;;;;-1.52;70.64;103116.06;125688;1100;103269;-76
2022/12/19 11:04:10;;;;;;;31.87;12.30;;;;;;;-1.52;71.50;103121.22;125841;1102;102835;-76
2022/12/19 11:06:50;;;;;;;30.57;11.57;;;;;;;-1.49;70.85;103123.27;125775;1102;101812;-76
2022/12/19 11:09:44;;;;;;;30.02;11.35;;;;;;;-1.45;70.47;103131.58;125738;1102;102734;-77
2022/12/19 11:12:18;;;;;;;30.93;12.20;;;;;;;-1.43;72.00;103120.52;125671;1102;103008;-76
2022/12/19 11:15:13;;;;;;;31.60;12.33;;;;;;;-1.35;71.94;103122.42;125530;1103;102888;-77
2022/12/19 11:17:46;;;;;;;36.05;13.05;;;;;;;-1.35;70.80;103125.00;125567;1102;103470;-77
2022/12/19 11:20:23;;;;;;;37.57;13.93;;;;;;;-1.33;70.65;103118.37;125702;1102;101929;-75
2022/12/19 11:22:58;;;;;;;32.30;12.17;;;;;;;-1.29;70.54;103123.20;125676;1102;102060;-75
2022/12/19 11:25:55;;;;;;;31.40;11.67;;;;;;;-1.23;71.54;103125.59;125696;1102;102638;-76
2022/12/19 11:28:34;;;;;;;38.33;13.90;;;;;;;-1.24;71.31;103122.11;125676;1102;102355;-76
2022/12/19 11:31:23;;;;;;;32.60;12.90;;;;;;;-1.23;70.32;103130.75;125963;1102;101775;-78
2022/12/19 11:34:05;;;;;;;33.50;14.83;;;;;;;-1.24;71.36;103134.98;125731;1102;101920;-75
2022/12/19 11:36:44;;;;;;;32.70;13.60;;;;;;;-1.22;70.28;103135.19;125593;1102;102664;-77
2022/12/19 11:39:29;;;;;;;33.43;12.90;;;;;;;-1.22;70.47;103124.87;125680;1102;102045;-76
2022/12/19 11:42:07;;;;;;;32.63;11.87;;;;;;;-1.21;70.29;103130.22;125758;1102;102362;-75
2022/12/19 11:44:47;;;;;;;28.60;12.23;;;;;;;-1.18;70.69;103133.19;125956;1101;102770;-77
2022/12/19 11:47:36;;;;;;;32.57;12.23;;;;;;;-1.20;70.17;103137.23;125842;1101;102863;-77
2022/12/19 11:50:15;;;;;;;36.77;13.07;;;;;;;-1.24;70.93;103137.56;125960;1101;102329;-75
2022/12/19 11:52:52;;;;;;;32.13;12.87;;;;;;;-1.22;71.37;103133.52;125794;1102;104120;-76